Time;durP1;ratioP1;P1;durP2;ratioP2;P2;SDS_P1;SDS_P2;PMS_P1;PMS_P2;Temp;Humidity;BMP_temperature;BMP_pressure;BME280_temperature;BME280_humidity;BME280_pressure;Samples;Min_cycle;Max_cycle;Signal;HPM_P1;HPM_P2
2023/09/15 00:00:21;;;;;;;13.05;4.53;;;;;;;-148.88;100.00;-17125.47;4999855;28;20053;-84
2023/09/15 00:02:48;;;;;;;7.88;4.32;;;;;;;-148.88;100.00;-17125.47;4999439;28;20100;-81
2023/09/15 00:05:15;;;;;;;7.43;4.38;;;;;;;-148.88;100.00;-17125.47;4999646;28;20038;-83
2023/09/15 00:07:40;;;;;;;7.32;4.10;;;;;;;-148.88;100.00;-17125.47;5000088;28;20030;-82
2023/09/15 00:10:06;;;;;;;7.55;3.90;;;;;;;-148.88;100.00;-17125.47;4998726;28;20058;-81
2023/09/15 00:12:32;;;;;;;5.95;4.28;;;;;;;-148.88;100.00;-17125.47;4999749;28;20089;-82
2023/09/15 00:14:58;;;;;;;6.60;4.10;;;;;;;-148.88;100.00;-17125.47;5000469;28;20033;-82
2023/09/15 00:17:25;;;;;;;6.82;4.03;;;;;;;-148.88;100.00;-17125.47;4999306;28;20054;-83
2023/09/15 00:19:51;;;;;;;7.07;4.15;;;;;;;-148.88;100.00;-17125.47;5000186;28;20508;-83
2023/09/15 00:22:16;;;;;;;5.90;3.90;;;;;;;-148.88;100.00;-17125.47;4998848;28;20026;-83
2023/09/15 00:24:41;;;;;;;6.20;3.67;;;;;;;-148.88;100.00;-17125.47;4998095;28;20046;-82
2023/09/15 00:27:07;;;;;;;5.93;3.72;;;;;;;-148.88;100.00;-17125.47;4999226;28;20050;-82
2023/09/15 00:29:35;;;;;;;7.82;4.10;;;;;;;-148.88;100.00;-17125.47;4998062;28;20026;-83
2023/09/15 00:32:00;;;;;;;6.75;3.78;;;;;;;-148.88;100.00;-17125.47;4995998;28;20033;-83
2023/09/15 00:34:25;;;;;;;10.43;4.22;;;;;;;-148.88;100.00;-17125.47;4999482;28;20037;-82
2023/09/15 00:36:51;;;;;;;6.65;3.83;;;;;;;-148.88;100.00;-17125.47;4999311;28;20062;-82
2023/09/15 00:39:16;;;;;;;7.15;4.10;;;;;;;-148.88;100.00;-17125.47;4999242;28;20076;-81
2023/09/15 00:41:41;;;;;;;8.10;4.40;;;;;;;-148.88;100.00;-17125.47;4999794;28;20461;-83
2023/09/15 00:44:07;;;;;;;7.35;4.53;;;;;;;-148.88;100.00;-17125.47;4999932;28;20058;-82
2023/09/15 00:46:32;;;;;;;7.45;4.28;;;;;;;-148.88;100.00;-17125.47;4999379;28;20049;-82
2023/09/15 00:48:58;;;;;;;9.00;4.10;;;;;;;-148.88;100.00;-17125.47;4997782;28;20034;-81
2023/09/15 00:51:25;;;;;;;7.70;4.72;;;;;;;-148.88;100.00;-17125.47;4999421;28;20544;-82
2023/09/15 00:53:51;;;;;;;7.50;4.10;;;;;;;-148.88;100.00;-17125.47;4997802;28;20077;-82
2023/09/15 00:56:17;;;;;;;6.60;4.35;;;;;;;-148.88;100.00;-17125.47;4999291;28;20431;-82
2023/09/15 00:58:44;;;;;;;7.30;4.30;;;;;;;-148.88;100.00;-17125.47;4997672;28;20061;-81
2023/09/15 01:01:10;;;;;;;6.35;4.00;;;;;;;-148.88;100.00;-17125.47;4999206;28;20037;-83
2023/09/15 01:03:40;;;;;;;7.93;4.18;;;;;;;-148.88;100.00;-17125.47;4998367;28;20022;-83
2023/09/15 01:06:07;;;;;;;9.90;4.88;;;;;;;-148.88;100.00;-17125.47;4996553;28;20517;-83
2023/09/15 01:08:37;;;;;;;5.45;4.40;;;;;;;-148.88;100.00;-17125.47;4996623;28;20154;-83
2023/09/15 01:11:04;;;;;;;7.43;4.63;;;;;;;-148.88;100.00;-17125.47;4998599;28;20045;-82
2023/09/15 01:13:32;;;;;;;7.03;4.80;;;;;;;-148.88;100.00;-17125.47;5002670;28;20022;-82
2023/09/15 01:16:23;;;;;;;11.52;4.88;;;;;;;-148.88;100.00;-17125.47;5003118;28;20026;-82
2023/09/15 01:19:12;;;;;;;7.47;4.68;;;;;;;-148.88;100.00;-17125.47;5000353;28;20049;-81
2023/09/15 01:21:55;;;;;;;8.80;4.63;;;;;;;-148.88;100.00;-17125.47;4997476;28;20030;-83
2023/09/15 01:24:48;;;;;;;8.50;4.57;;;;;;;-148.88;100.00;-17125.47;4997988;28;20027;-82
2023/09/15 01:27:47;;;;;;;7.95;4.88;;;;;;;-148.88;100.00;-17125.47;5000622;28;20041;-83
2023/09/15 01:30:13;;;;;;;7.35;4.93;;;;;;;-148.88;100.00;-17125.47;5000032;28;20034;-84
2023/09/15 01:32:41;;;;;;;7.60;4.60;;;;;;;-148.88;100.00;-17125.47;4999365;28;20031;-82
2023/09/15 01:35:07;;;;;;;10.32;5.30;;;;;;;-148.88;100.00;-17125.47;4999466;28;20430;-82
2023/09/15 01:37:32;;;;;;;8.60;5.18;;;;;;;-148.88;100.00;-17125.47;4998929;28;20027;-82
2023/09/15 01:40:00;;;;;;;8.18;5.00;;;;;;;-148.88;100.00;-17125.47;4998817;28;20022;-82
2023/09/15 01:42:26;;;;;;;8.77;5.65;;;;;;;-148.88;100.00;-17125.47;4998477;28;20150;-82
2023/09/15 01:44:52;;;;;;;9.35;5.15;;;;;;;-148.88;100.00;-17125.47;5001140;28;20050;-81
2023/09/15 01:47:22;;;;;;;9.50;5.45;;;;;;;-148.88;100.00;-17125.47;5001605;28;20025;-83
2023/09/15 01:49:52;;;;;;;8.98;5.38;;;;;;;-148.88;100.00;-17125.47;5001858;28;20033;-82
2023/09/15 01:52:20;;;;;;;8.27;5.65;;;;;;;-148.88;100.00;-17125.47;5001530;28;20029;-83
2023/09/15 01:54:48;;;;;;;9.75;5.35;;;;;;;-148.88;100.00;-17125.47;5001113;28;20085;-81
2023/09/15 01:57:13;;;;;;;8.27;5.13;;;;;;;-148.88;100.00;-17125.47;5000259;28;20077;-82
2023/09/15 01:59:38;;;;;;;9.93;5.50;;;;;;;-148.88;100.00;-17125.47;4999834;28;20022;-82
2023/09/15 02:02:04;;;;;;;10.20;5.10;;;;;;;-148.88;100.00;-17125.47;4999770;28;20037;-82
2023/09/15 02:04:29;;;;;;;7.93;5.78;;;;;;;-148.88;100.00;-17125.47;5000818;28;20026;-81
2023/09/15 02:06:54;;;;;;;7.90;5.25;;;;;;;-148.88;100.00;-17125.47;5001292;28;20034;-81
2023/09/15 02:09:20;;;;;;;8.38;5.03;;;;;;;-148.88;100.00;-17125.47;4999925;28;20030;-81
2023/09/15 02:11:46;;;;;;;7.53;5.90;;;;;;;-148.88;100.00;-17125.47;4999399;28;20054;-83
2023/09/15 02:14:11;;;;;;;11.13;6.00;;;;;;;-148.88;100.00;-17125.47;5001762;28;20142;-82
2023/09/15 02:16:36;;;;;;;8.93;6.00;;;;;;;-148.88;100.00;-17125.47;5000924;28;20026;-81
2023/09/15 02:19:02;;;;;;;9.30;6.03;;;;;;;-148.88;100.00;-17125.47;5001203;28;20080;-81
2023/09/15 02:21:29;;;;;;;7.00;5.72;;;;;;;-148.88;100.00;-17125.47;4999115;28;20033;-82
2023/09/15 02:23:55;;;;;;;8.00;5.70;;;;;;;-148.88;100.00;-17125.47;5000093;28;20026;-83
2023/09/15 02:26:21;;;;;;;10.43;6.13;;;;;;;-148.88;100.00;-17125.47;5030443;23;20041;-80
2023/09/15 02:28:46;;;;;;;9.25;5.75;;;;;;;-148.88;100.00;-17125.47;5037109;28;20372;-80
2023/09/15 02:31:12;;;;;;;9.98;5.72;;;;;;;-148.88;100.00;-17125.47;5038987;28;20495;-80
2023/09/15 02:33:37;;;;;;;12.10;5.90;;;;;;;-148.88;100.00;-17125.47;5038701;28;20029;-80
2023/09/15 02:36:03;;;;;;;10.27;6.13;;;;;;;-148.88;100.00;-17125.47;5036596;28;20026;-80
2023/09/15 02:38:29;;;;;;;10.75;5.95;;;;;;;-148.88;100.00;-17125.47;5035943;28;20032;-80
2023/09/15 02:40:55;;;;;;;8.35;6.10;;;;;;;-148.88;100.00;-17125.47;5035893;28;20021;-80
2023/09/15 02:43:20;;;;;;;11.50;6.32;;;;;;;-148.88;100.00;-17125.47;5037654;28;20041;-80
2023/09/15 02:45:46;;;;;;;8.55;5.90;;;;;;;-148.88;100.00;-17125.47;5035609;28;20487;-80
2023/09/15 02:48:11;;;;;;;8.90;6.07;;;;;;;-148.88;100.00;-17125.47;5035816;28;20387;-80
2023/09/15 02:50:43;;;;;;;9.13;6.00;;;;;;;-148.88;100.00;-17125.47;5035654;28;20095;-79
2023/09/15 02:53:10;;;;;;;11.15;6.35;;;;;;;-148.88;100.00;-17125.47;5037412;28;20455;-80
2023/09/15 02:55:39;;;;;;;12.38;6.47;;;;;;;-148.88;100.00;-17125.47;5035887;28;20026;-80
2023/09/15 02:58:05;;;;;;;8.10;5.78;;;;;;;-148.88;100.00;-17125.47;5038134;28;20460;-81
2023/09/15 03:00:31;;;;;;;9.60;5.88;;;;;;;-148.88;100.00;-17125.47;5035943;28;20025;-81
2023/09/15 03:02:56;;;;;;;10.82;5.90;;;;;;;-148.88;100.00;-17125.47;5037904;28;20036;-81
2023/09/15 03:05:22;;;;;;;7.63;6.05;;;;;;;-148.88;100.00;-17125.47;5036362;28;20076;-81
2023/09/15 03:07:47;;;;;;;8.30;5.68;;;;;;;-148.88;100.00;-17125.47;5039913;28;20025;-81
2023/09/15 03:10:13;;;;;;;9.30;6.13;;;;;;;-148.88;100.00;-17125.47;5035753;28;20026;-80
2023/09/15 03:12:38;;;;;;;8.00;5.60;;;;;;;-148.88;100.00;-17125.47;5037136;28;20025;-80
2023/09/15 03:15:06;;;;;;;9.27;6.53;;;;;;;-148.88;100.00;-17125.47;5035626;28;20029;-80
2023/09/15 03:17:33;;;;;;;8.88;6.57;;;;;;;-148.88;100.00;-17125.47;5036344;28;20034;-80
2023/09/15 03:19:59;;;;;;;9.07;6.25;;;;;;;-148.88;100.00;-17125.47;5036554;28;20057;-81
2023/09/15 03:22:27;;;;;;;7.88;6.70;;;;;;;-148.88;100.00;-17125.47;5035530;28;20404;-80
2023/09/15 03:24:54;;;;;;;11.32;6.88;;;;;;;-148.88;100.00;-17125.47;5036817;28;20033;-80
2023/09/15 03:27:20;;;;;;;12.35;7.65;;;;;;;-148.88;100.00;-17125.47;5036315;28;20112;-80
2023/09/15 03:29:46;;;;;;;11.57;7.35;;;;;;;-148.88;100.00;-17125.47;5035327;28;20104;-80
2023/09/15 03:32:11;;;;;;;23.23;7.22;;;;;;;-148.88;100.00;-17125.47;5036931;28;20017;-80
2023/09/15 03:34:38;;;;;;;9.15;6.95;;;;;;;-148.88;100.00;-17125.47;5037438;28;20446;-80
2023/09/15 03:37:04;;;;;;;10.07;7.32;;;;;;;-148.88;100.00;-17125.47;5035136;28;20037;-80
2023/09/15 03:39:29;;;;;;;12.05;6.82;;;;;;;-148.88;100.00;-17125.47;5036517;28;20029;-80
2023/09/15 03:41:55;;;;;;;10.45;7.45;;;;;;;-148.88;100.00;-17125.47;5034868;28;20075;-80
2023/09/15 03:44:22;;;;;;;11.40;7.85;;;;;;;-148.88;100.00;-17125.47;5037771;28;20029;-80
2023/09/15 03:46:48;;;;;;;7.97;6.55;;;;;;;-148.88;100.00;-17125.47;5034169;28;20103;-80
2023/09/15 03:49:14;;;;;;;14.05;7.88;;;;;;;-148.88;100.00;-17125.47;5034735;28;20053;-80
2023/09/15 03:51:40;;;;;;;10.73;7.10;;;;;;;-148.88;100.00;-17125.47;5035922;28;20025;-80
2023/09/15 03:54:05;;;;;;;11.23;7.53;;;;;;;-148.88;100.00;-17125.47;5035632;28;20034;-80
2023/09/15 03:56:32;;;;;;;8.40;7.00;;;;;;;-148.88;100.00;-17125.47;5035907;28;20029;-80
2023/09/15 03:58:58;;;;;;;10.25;7.43;;;;;;;-148.88;100.00;-17125.47;5035479;28;20492;-79
2023/09/15 04:01:24;;;;;;;10.95;7.60;;;;;;;-148.88;100.00;-17125.47;5036953;28;20032;-79
2023/09/15 04:03:49;;;;;;;10.55;7.60;;;;;;;-148.88;100.00;-17125.47;5036237;28;20040;-79
2023/09/15 04:06:16;;;;;;;11.57;7.38;;;;;;;-148.88;100.00;-17125.47;5037131;28;20045;-80
2023/09/15 04:08:41;;;;;;;10.57;7.80;;;;;;;-148.88;100.00;-17125.47;5045046;28;20052;-79
2023/09/15 04:11:07;;;;;;;8.43;6.80;;;;;;;-148.88;100.00;-17125.47;5046342;28;20029;-80
2023/09/15 04:13:32;;;;;;;9.65;6.82;;;;;;;-148.88;100.00;-17125.47;5039418;28;20033;-80
2023/09/15 04:15:59;;;;;;;9.10;7.13;;;;;;;-148.88;100.00;-17125.47;5036174;28;20472;-80
2023/09/15 04:18:25;;;;;;;9.75;7.32;;;;;;;-148.88;100.00;-17125.47;5035941;28;20033;-80
2023/09/15 04:20:50;;;;;;;11.05;7.53;;;;;;;-148.88;100.00;-17125.47;5036085;28;20025;-80
2023/09/15 04:23:16;;;;;;;9.90;7.40;;;;;;;-148.88;100.00;-17125.47;5037145;28;20100;-80
2023/09/15 04:25:43;;;;;;;11.52;7.25;;;;;;;-148.88;100.00;-17125.47;5034514;28;20035;-80
2023/09/15 04:28:08;;;;;;;9.30;7.22;;;;;;;-148.88;100.00;-17125.47;5036077;28;20021;-80
2023/09/15 04:30:33;;;;;;;9.77;6.65;;;;;;;-148.88;100.00;-17125.47;5035339;28;20476;-80
2023/09/15 04:32:59;;;;;;;9.30;6.53;;;;;;;-148.88;100.00;-17125.47;5040076;28;20071;-80
2023/09/15 04:35:27;;;;;;;8.50;6.20;;;;;;;-148.88;100.00;-17125.47;5040638;28;20044;-81
2023/09/15 04:37:52;;;;;;;10.55;6.20;;;;;;;-148.88;100.00;-17125.47;5037264;28;20546;-80
2023/09/15 04:40:17;;;;;;;8.18;6.28;;;;;;;-148.88;100.00;-17125.47;5039454;28;20033;-80
2023/09/15 04:42:44;;;;;;;10.35;6.60;;;;;;;-148.88;100.00;-17125.47;5038078;28;20029;-79
2023/09/15 04:45:09;;;;;;;9.13;6.68;;;;;;;-148.88;100.00;-17125.47;5035859;28;20180;-79
2023/09/15 04:47:37;;;;;;;8.18;6.47;;;;;;;-148.88;100.00;-17125.47;5035660;28;20057;-79
2023/09/15 04:50:03;;;;;;;8.18;6.28;;;;;;;-148.88;100.00;-17125.47;5035362;28;20035;-79
2023/09/15 04:52:31;;;;;;;7.38;6.40;;;;;;;-148.88;100.00;-17125.47;5034024;28;20057;-79
2023/09/15 04:54:56;;;;;;;9.18;6.47;;;;;;;-148.88;100.00;-17125.47;5035756;28;20083;-79
2023/09/15 04:57:22;;;;;;;11.50;6.57;;;;;;;-148.88;100.00;-17125.47;5036971;28;20025;-79
2023/09/15 04:59:48;;;;;;;9.38;7.28;;;;;;;-148.88;100.00;-17125.47;5038138;28;20032;-79
2023/09/15 05:02:14;;;;;;;11.88;7.30;;;;;;;-148.88;100.00;-17125.47;5035832;28;20040;-78
2023/09/15 05:04:40;;;;;;;8.75;6.10;;;;;;;-148.88;100.00;-17125.47;5036685;28;20025;-80
2023/09/15 05:07:06;;;;;;;9.20;6.43;;;;;;;-148.88;100.00;-17125.47;5036202;28;20087;-79
2023/09/15 05:09:31;;;;;;;8.07;6.35;;;;;;;-148.88;100.00;-17125.47;5036104;28;20026;-79
2023/09/15 05:11:57;;;;;;;9.23;6.63;;;;;;;-148.88;100.00;-17125.47;5033822;28;20047;-79
2023/09/15 05:14:22;;;;;;;7.95;6.55;;;;;;;-148.88;100.00;-17125.47;5036130;28;20025;-79
2023/09/15 05:16:49;;;;;;;9.18;6.05;;;;;;;-148.88;100.00;-17125.47;5034586;28;20045;-80
2023/09/15 05:19:14;;;;;;;9.10;6.55;;;;;;;-148.88;100.00;-17125.47;5038159;28;20025;-79
2023/09/15 05:21:40;;;;;;;8.95;6.28;;;;;;;-148.88;100.00;-17125.47;5039665;28;20028;-79
2023/09/15 05:24:06;;;;;;;10.98;6.75;;;;;;;-148.88;100.00;-17125.47;5039629;28;20029;-79
2023/09/15 05:26:31;;;;;;;9.10;7.03;;;;;;;-148.88;100.00;-17125.47;5037883;28;20129;-80
2023/09/15 05:28:57;;;;;;;11.40;7.93;;;;;;;-148.88;100.00;-17125.47;5040157;28;20036;-79
2023/09/15 05:31:25;;;;;;;11.85;7.80;;;;;;;-148.88;100.00;-17125.47;5038523;28;20056;-79
2023/09/15 05:33:53;;;;;;;10.20;7.43;;;;;;;-148.88;100.00;-17125.47;5039691;28;20040;-79
2023/09/15 05:36:18;;;;;;;8.27;6.60;;;;;;;-148.88;100.00;-17125.47;5038322;28;20022;-79
2023/09/15 05:38:43;;;;;;;11.57;7.03;;;;;;;-148.88;100.00;-17125.47;5037999;28;20388;-80
2023/09/15 05:41:09;;;;;;;9.68;6.70;;;;;;;-148.88;100.00;-17125.47;5037996;28;20082;-80
2023/09/15 05:43:34;;;;;;;11.70;6.90;;;;;;;-148.88;100.00;-17125.47;5038857;28;20061;-81
2023/09/15 05:46:00;;;;;;;13.00;7.10;;;;;;;-148.88;100.00;-17125.47;5038801;28;20424;-80
2023/09/15 05:48:26;;;;;;;9.50;6.93;;;;;;;-148.88;100.00;-17125.47;5039177;28;20415;-80
2023/09/15 05:50:52;;;;;;;12.50;7.13;;;;;;;-148.88;100.00;-17125.47;5039654;28;20057;-80
2023/09/15 05:53:18;;;;;;;11.40;7.50;;;;;;;-148.88;100.00;-17125.47;5037650;28;20034;-80
2023/09/15 05:55:43;;;;;;;9.98;7.65;;;;;;;-148.88;100.00;-17125.47;5037006;28;20029;-81
2023/09/15 05:58:09;;;;;;;10.10;7.20;;;;;;;-148.88;100.00;-17125.47;5038536;28;20029;-80
2023/09/15 06:00:34;;;;;;;11.07;7.63;;;;;;;-148.88;100.00;-17125.47;5036709;28;20400;-80
2023/09/15 06:02:59;;;;;;;10.07;7.53;;;;;;;-148.88;100.00;-17125.47;5038113;28;20025;-80
2023/09/15 06:05:25;;;;;;;12.50;7.72;;;;;;;-148.88;100.00;-17125.47;5036158;28;20024;-80
2023/09/15 06:07:54;;;;;;;10.32;8.05;;;;;;;-148.88;100.00;-17125.47;5037936;28;20041;-81
2023/09/15 06:10:20;;;;;;;10.43;7.63;;;;;;;-148.88;100.00;-17125.47;5039238;28;20484;-80
2023/09/15 06:12:48;;;;;;;10.55;7.82;;;;;;;-148.88;100.00;-17125.47;5038540;28;20033;-80
2023/09/15 06:15:13;;;;;;;12.18;7.85;;;;;;;-148.88;100.00;-17125.47;5037419;28;20499;-80
2023/09/15 06:17:39;;;;;;;11.35;7.85;;;;;;;-148.88;100.00;-17125.47;5037754;28;20022;-81
2023/09/15 06:20:05;;;;;;;11.80;7.95;;;;;;;-148.88;100.00;-17125.47;5037002;28;20075;-80
2023/09/15 06:22:30;;;;;;;13.23;8.30;;;;;;;-148.88;100.00;-17125.47;5037616;28;20026;-80
2023/09/15 06:24:56;;;;;;;13.25;7.70;;;;;;;-148.88;100.00;-17125.47;5037776;28;20119;-80
2023/09/15 06:27:21;;;;;;;11.02;7.93;;;;;;;-148.88;100.00;-17125.47;5036135;28;20037;-80
2023/09/15 06:29:47;;;;;;;11.65;7.93;;;;;;;-148.88;100.00;-17125.47;5036261;28;20513;-80
2023/09/15 06:32:12;;;;;;;12.40;8.00;;;;;;;-148.88;100.00;-17125.47;5036669;28;20475;-80
2023/09/15 06:34:38;;;;;;;12.20;7.93;;;;;;;-148.88;100.00;-17125.47;5035974;28;20026;-81
2023/09/15 06:37:04;;;;;;;12.50;8.50;;;;;;;-148.88;100.00;-17125.47;5037787;28;20108;-80
2023/09/15 06:39:30;;;;;;;12.68;8.15;;;;;;;-148.88;100.00;-17125.47;5037960;28;20057;-80
2023/09/15 06:41:55;;;;;;;11.30;8.13;;;;;;;-148.88;100.00;-17125.47;5036427;28;20550;-79
2023/09/15 06:44:21;;;;;;;10.00;8.50;;;;;;;-148.88;100.00;-17125.47;5038146;28;20051;-79
2023/09/15 06:46:46;;;;;;;9.98;8.25;;;;;;;-148.88;100.00;-17125.47;5038270;28;20100;-80
2023/09/15 06:49:12;;;;;;;12.43;8.90;;;;;;;-148.88;100.00;-17125.47;5037685;28;20025;-81
2023/09/15 06:51:38;;;;;;;11.15;8.10;;;;;;;-148.88;100.00;-17125.47;5036497;28;20018;-80
2023/09/15 06:54:04;;;;;;;12.60;8.18;;;;;;;-148.88;100.00;-17125.47;5036848;28;20091;-80
2023/09/15 06:56:29;;;;;;;12.88;7.93;;;;;;;-148.88;100.00;-17125.47;5036806;28;20034;-81
2023/09/15 06:58:54;;;;;;;13.18;8.10;;;;;;;-148.88;100.00;-17125.47;5037259;28;20025;-81
2023/09/15 07:01:20;;;;;;;11.98;8.07;;;;;;;-148.88;100.00;-17125.47;5037348;28;20048;-80
2023/09/15 07:03:45;;;;;;;12.68;8.65;;;;;;;-148.88;100.00;-17125.47;5037927;28;20029;-80
2023/09/15 07:06:13;;;;;;;13.55;8.32;;;;;;;-148.88;100.00;-17125.47;5036289;28;20021;-82
2023/09/15 07:08:39;;;;;;;11.18;8.05;;;;;;;-148.88;100.00;-17125.47;5035019;28;20112;-81
2023/09/15 07:11:04;;;;;;;13.43;8.32;;;;;;;-148.88;100.00;-17125.47;5036153;28;20398;-80
2023/09/15 07:13:30;;;;;;;11.35;8.30;;;;;;;-148.88;100.00;-17125.47;5036791;28;20028;-80
2023/09/15 07:15:55;;;;;;;9.45;8.23;;;;;;;-148.88;100.00;-17125.47;5035682;28;20025;-80
2023/09/15 07:18:20;;;;;;;11.52;9.00;;;;;;;-148.88;100.00;-17125.47;5036276;28;20068;-83
2023/09/15 07:20:46;;;;;;;14.40;8.15;;;;;;;-148.88;100.00;-17125.47;5036824;28;20033;-81
2023/09/15 07:23:14;;;;;;;14.18;9.00;;;;;;;-148.88;100.00;-17125.47;5036478;28;20029;-81
2023/09/15 07:25:39;;;;;;;14.57;8.73;;;;;;;-148.88;100.00;-17125.47;5036611;28;20068;-80
2023/09/15 07:28:08;;;;;;;13.70;8.60;;;;;;;-148.88;100.00;-17125.47;5034571;28;20388;-80
2023/09/15 07:30:33;;;;;;;11.88;9.32;;;;;;;-148.88;100.00;-17125.47;5034206;28;20029;-80
2023/09/15 07:33:01;;;;;;;12.38;9.02;;;;;;;-148.88;100.00;-17125.47;5035775;28;20028;-80
2023/09/15 07:35:30;;;;;;;14.30;9.15;;;;;;;-148.88;100.00;-17125.47;5034379;28;20484;-80
2023/09/15 07:37:55;;;;;;;11.30;8.57;;;;;;;-148.88;100.00;-17125.47;5033981;28;20044;-81
2023/09/15 07:40:22;;;;;;;11.10;8.75;;;;;;;-148.88;100.00;-17125.47;5035538;28;20411;-80
2023/09/15 07:42:51;;;;;;;10.15;8.85;;;;;;;-148.88;100.00;-17125.47;5034351;28;20037;-81
2023/09/15 07:45:16;;;;;;;12.02;9.27;;;;;;;-148.88;100.00;-17125.47;5036011;28;20499;-81
2023/09/15 07:47:42;;;;;;;12.00;8.75;;;;;;;-148.88;100.00;-17125.47;5035908;28;20029;-81
2023/09/15 07:50:10;;;;;;;14.15;9.32;;;;;;;-148.88;100.00;-17125.47;5035136;28;20072;-80
2023/09/15 07:52:35;;;;;;;13.82;9.55;;;;;;;-148.88;100.00;-17125.47;5035947;28;20025;-80
2023/09/15 07:55:01;;;;;;;13.55;9.48;;;;;;;-148.88;100.00;-17125.47;5035513;28;20028;-80
2023/09/15 07:57:28;;;;;;;11.30;8.77;;;;;;;-148.88;100.00;-17125.47;5035077;28;20025;-81
2023/09/15 07:59:53;;;;;;;13.63;8.13;;;;;;;-148.88;100.00;-17125.47;5035036;28;20025;-80
2023/09/15 08:02:20;;;;;;;12.98;7.35;;;;;;;-148.88;100.00;-17125.47;5037313;28;20048;-80
2023/09/15 08:04:48;;;;;;;11.80;6.75;;;;;;;-148.88;100.00;-17125.47;5036112;28;20052;-80
2023/09/15 08:07:13;;;;;;;9.05;7.20;;;;;;;-148.88;100.00;-17125.47;5035397;28;20208;-80
2023/09/15 08:09:39;;;;;;;12.48;7.03;;;;;;;-148.88;100.00;-17125.47;5036305;28;20056;-80
2023/09/15 08:12:08;;;;;;;9.82;5.93;;;;;;;-148.88;100.00;-17125.47;5037782;28;20395;-80
2023/09/15 08:14:41;;;;;;;7.30;5.82;;;;;;;-148.88;100.00;-17125.47;5037820;28;20028;-81
2023/09/15 08:17:07;;;;;;;10.45;6.95;;;;;;;-148.88;100.00;-17125.47;5035874;28;20060;-81
2023/09/15 08:19:36;;;;;;;10.70;6.85;;;;;;;-148.88;100.00;-17125.47;5035993;28;20071;-81
2023/09/15 08:22:02;;;;;;;9.98;6.25;;;;;;;-148.88;100.00;-17125.47;5036722;28;20458;-81
2023/09/15 08:24:27;;;;;;;10.10;6.72;;;;;;;-148.88;100.00;-17125.47;5034809;28;20488;-81
2023/09/15 08:26:53;;;;;;;10.05;6.18;;;;;;;-148.88;100.00;-17125.47;5036246;28;20528;-81
2023/09/15 08:29:18;;;;;;;8.48;6.30;;;;;;;-148.88;100.00;-17125.47;5037228;28;20037;-81
2023/09/15 08:31:43;;;;;;;9.73;5.40;;;;;;;-148.88;100.00;-17125.47;5035020;28;20357;-80
2023/09/15 08:34:09;;;;;;;7.45;5.63;;;;;;;-148.88;100.00;-17125.47;5037501;28;20061;-81
2023/09/15 08:36:55;;;;;;;7.03;5.13;;;;;;;-148.88;100.00;-17125.47;5037451;28;20025;-81
2023/09/15 08:39:23;;;;;;;8.52;5.15;;;;;;;-148.88;100.00;-17125.47;5038057;28;20045;-80
2023/09/15 08:41:58;;;;;;;9.02;5.72;;;;;;;-148.88;100.00;-17125.47;5036755;28;20049;-80
2023/09/15 08:44:24;;;;;;;8.25;5.55;;;;;;;-148.88;100.00;-17125.47;5034362;28;20026;-80
2023/09/15 08:47:20;;;;;;;9.70;4.93;;;;;;;-148.88;100.00;-17125.47;5035573;28;20025;-80
2023/09/15 08:49:48;;;;;;;7.63;4.97;;;;;;;-148.88;100.00;-17125.47;5035988;28;20099;-80
2023/09/15 08:52:17;;;;;;;6.93;4.47;;;;;;;-148.88;100.00;-17125.47;5035870;28;20026;-80
2023/09/15 08:54:45;;;;;;;6.80;4.70;;;;;;;-148.88;100.00;-17125.47;5035230;28;20480;-81
2023/09/15 08:57:14;;;;;;;8.05;4.38;;;;;;;-148.88;100.00;-17125.47;5036079;28;20136;-81
2023/09/15 08:59:47;;;;;;;9.73;4.70;;;;;;;-148.88;100.00;-17125.47;5037456;28;20373;-81
2023/09/15 09:02:14;;;;;;;7.28;4.70;;;;;;;-148.88;100.00;-17125.47;5037103;28;20044;-81
2023/09/15 09:04:39;;;;;;;7.20;4.63;;;;;;;-148.88;100.00;-17125.47;5036773;28;20057;-81
2023/09/15 09:07:06;;;;;;;6.93;4.57;;;;;;;-148.88;100.00;-17125.47;5036907;28;20120;-81
2023/09/15 09:09:34;;;;;;;5.32;4.20;;;;;;;-148.88;100.00;-17125.47;5038617;28;20043;-81
2023/09/15 09:11:59;;;;;;;6.93;4.07;;;;;;;-148.88;100.00;-17125.47;5037713;28;20021;-80
2023/09/15 09:14:27;;;;;;;6.22;4.20;;;;;;;-148.88;100.00;-17125.47;5038964;28;20030;-80
2023/09/15 09:16:59;;;;;;;8.07;4.45;;;;;;;-148.88;100.00;-17125.47;5040115;28;20029;-81
2023/09/15 09:19:35;;;;;;;7.55;4.10;;;;;;;-148.88;100.00;-17125.47;5036417;28;20484;-80
2023/09/15 09:22:01;;;;;;;7.60;4.28;;;;;;;-148.88;100.00;-17125.47;5032287;28;20120;-80
2023/09/15 09:24:27;;;;;;;6.55;3.88;;;;;;;-148.88;99.57;-17125.47;5035230;28;20022;-80
2023/09/15 09:26:56;;;;;;;7.53;3.90;;;;;;;-148.88;100.00;-17125.47;5037048;28;20025;-80
2023/09/15 09:29:24;;;;;;;5.85;3.97;;;;;;;-148.88;100.00;-17125.47;5035854;28;20025;-80
2023/09/15 09:31:50;;;;;;;5.70;3.97;;;;;;;-148.88;100.00;-17125.47;5038142;28;20054;-80
2023/09/15 09:34:18;;;;;;;7.20;4.05;;;;;;;-148.88;99.42;-17125.47;5036494;28;20048;-80
2023/09/15 09:36:48;;;;;;;6.63;3.60;;;;;;;-148.88;98.46;-17125.47;5037193;28;20026;-80
2023/09/15 09:39:14;;;;;;;6.47;3.97;;;;;;;-148.88;100.00;-17125.47;5037506;28;20069;-80
2023/09/15 09:41:42;;;;;;;6.00;3.75;;;;;;;-148.88;98.50;-17125.47;5036637;28;20018;-80
2023/09/15 09:44:08;;;;;;;6.35;3.80;;;;;;;-148.88;95.93;-17125.47;5037358;28;20061;-80
2023/09/15 09:46:36;;;;;;;6.03;3.53;;;;;;;-148.88;94.64;-17125.47;5037077;28;20068;-80
2023/09/15 09:49:01;;;;;;;5.00;3.40;;;;;;;-148.88;91.40;-17125.47;5036019;28;20124;-80
2023/09/15 09:51:28;;;;;;;8.75;3.55;;;;;;;-148.88;96.62;-17125.47;5035766;28;20486;-80
2023/09/15 09:53:55;;;;;;;4.10;3.33;;;;;;;-148.88;92.31;-17125.47;5036410;28;20083;-80
2023/09/15 09:56:22;;;;;;;7.45;4.00;;;;;;;-148.88;90.70;-17125.47;5031495;28;20083;-78
2023/09/15 09:58:48;;;;;;;5.05;3.08;;;;;;;-148.88;94.19;-17125.47;5032959;28;20029;-80
2023/09/15 10:01:14;;;;;;;6.05;3.70;;;;;;;-148.88;92.17;-17125.47;5034117;28;20030;-79
2023/09/15 10:03:40;;;;;;;6.80;3.60;;;;;;;-148.88;90.65;-17125.47;5037999;28;20025;-80
2023/09/15 10:06:07;;;;;;;6.18;3.15;;;;;;;-148.88;93.57;-17125.47;5039434;28;20099;-79
2023/09/15 10:08:33;;;;;;;6.45;3.50;;;;;;;-148.88;88.09;-17125.47;5039187;28;20022;-81
2023/09/15 10:10:59;;;;;;;6.05;3.13;;;;;;;-148.88;87.80;-17125.47;5042529;28;20048;-80
2023/09/15 10:13:24;;;;;;;6.97;3.50;;;;;;;-148.88;87.25;-17125.47;5044481;28;20075;-79
2023/09/15 10:15:52;;;;;;;8.20;3.85;;;;;;;-148.88;86.45;-17125.47;5043952;28;20025;-79
2023/09/15 10:18:19;;;;;;;6.22;3.47;;;;;;;-148.88;86.27;-17125.47;5043410;28;20029;-79
2023/09/15 10:20:48;;;;;;;5.30;3.22;;;;;;;-148.88;86.59;-17125.47;5044737;28;20121;-79
2023/09/15 10:23:14;;;;;;;4.38;3.22;;;;;;;-148.88;88.65;-17125.47;5042177;28;20021;-79
2023/09/15 10:25:44;;;;;;;5.13;3.10;;;;;;;-148.88;84.73;-17125.47;5044282;28;20022;-79
2023/09/15 10:28:13;;;;;;;5.38;3.08;;;;;;;-148.88;84.02;-17125.47;5045366;28;20045;-79
2023/09/15 10:30:40;;;;;;;5.18;3.22;;;;;;;-148.88;82.46;-17125.47;5044638;28;20017;-79
2023/09/15 10:33:07;;;;;;;8.05;3.67;;;;;;;-148.88;80.84;-17125.47;5035543;28;20022;-78
2023/09/15 10:35:33;;;;;;;5.00;3.10;;;;;;;-148.88;81.93;-17125.47;5034999;28;20025;-80
2023/09/15 10:38:05;;;;;;;4.53;3.30;;;;;;;-148.88;83.65;-17125.47;5036177;28;20029;-80
2023/09/15 10:40:49;;;;;;;5.07;3.28;;;;;;;-148.88;80.79;-17125.47;5038918;28;20080;-80
2023/09/15 10:43:19;;;;;;;5.05;3.20;;;;;;;-148.88;81.18;-17125.47;5038603;28;20041;-78
2023/09/15 10:46:02;;;;;;;5.13;3.28;;;;;;;-148.88;81.49;-17125.47;5038802;28;20071;-81
2023/09/15 10:48:38;;;;;;;5.03;3.50;;;;;;;-148.88;77.54;-17125.47;5039187;28;20021;-79
2023/09/15 10:51:08;;;;;;;6.18;3.55;;;;;;;-148.88;77.93;-17125.47;5038535;28;20439;-80
2023/09/15 10:53:47;;;;;;;6.03;3.60;;;;;;;-148.88;79.57;-17125.47;5031153;28;20022;-80
2023/09/15 10:56:16;;;;;;;6.18;3.60;;;;;;;-148.88;78.10;-17125.47;5041862;28;20025;-80
2023/09/15 10:58:42;;;;;;;6.32;3.78;;;;;;;-148.88;75.67;-17125.47;5041985;28;20021;-80